IOLK1: Grand River, Iola

                                SHEF ID:       IOLK1     NEOSHO RIVER NEAR IOLA
STATION TYPE:
Regulating: Stage = 15.00, Flow = 18228

PRECIP STAGE RIV-FLOW AIR-TEMP BAT-LOAD
in ft cfs F volt
Ccp-Rev Ccp-Rev Ccp-Rev Ccp-Rev Ccp-Rev
(America/Chicago)
08/31 00:00 0.00 6.97 161 28.20 12.37
08/31 01:00 0.00 6.97 161 27.00 12.35
08/31 02:00 0.00 6.97 161 27.80 12.34
08/31 03:00 0.00 6.98 168 26.90 12.31
08/31 04:00 0.00 6.97 161 25.70 12.29
08/31 05:00 0.00 6.97 161 25.20 12.27
08/31 06:00 0.00 6.97 161 25.40 12.24
08/31 07:00 0.00 6.97 161 25.20 12.21
08/31 08:00 0.00 6.98 168 26.10 12.20
08/31 09:00 0.00 6.98 168 28.60 12.44
08/31 10:00 0.00 6.98 168 31.80 12.77
08/31 11:00 0.00 6.99 176 33.70 12.85
08/31 12:00 0.00 6.98 168 35.60 12.77
08/31 13:00 0.00 6.97 161 36.40 12.63
08/31 14:00 0.00 6.98 168 38.20 12.60
08/31 15:00 0.00 6.98 168 38.30 12.65
08/31 16:00 0.00 6.98 168 38.40 12.63
08/31 17:00 0.00 6.98 168 37.30 12.67
08/31 18:00 0.00 6.99 176 37.60 12.56
08/31 19:00 0.00 6.98 168 35.90 12.54
08/31 20:00 0.00 6.98 168 32.40 12.49
08/31 21:00 0.00 6.98 168 31.10 12.44
08/31 22:00 0.00 6.98 168 29.40 12.42
08/31 23:00 0.00 6.98 168 27.30 12.40
Data processed at Tue 01Sep2026 04:38 GMT

NOTICE: If you are parsing this page

Please convert to using our Data API. Starting early 2026 we will be migrating to: https://water.usace.army.mil with modern pages rendered in JavaScript. When this migration completes you will no longer be able to scrape this page! CWMSDataAPI (CDA)

Timeseries IDs (TSIDs)

TSIDs used from left to right in the data table
IOLA.Precip-Inc.Total.1Hour.1Hour.Ccp-Rev
IOLA.Stage.Inst.1Hour.0.Ccp-Rev
IOLA.Flow.Inst.1Hour.0.Ccp-Rev
IOLA.Temp-Air.Inst.1Hour.0.Ccp-Rev
IOLA.Volt-Battery Load.Inst.1Hour.0.Ccp-Rev

                            

All information presented herein is the property of the government of the United States of America and may be revised or deleted at any time without prior notice. Dissemination of this information without the expressed written consent of the Public Affairs Office, Tulsa District U.S. Army Corps of Engineers is strictly prohibited. These data are gathered electronically and, as presented, have NOT undergone any form of quality control. These data are NOT guaranteed to be valid or correct.